createdAt,value
2023-01-19T00:00:49.318Z,11.00
2023-01-19T00:06:52.056Z,10.67
2023-01-19T00:12:54.498Z,8.93
2023-01-19T00:18:57.959Z,11.13
2023-01-19T00:25:04.428Z,16.30
2023-01-19T00:31:06.955Z,14.50
2023-01-19T00:37:12.376Z,9.47
2023-01-19T00:43:14.853Z,12.50
2023-01-19T00:49:17.295Z,8.53
2023-01-19T00:55:19.748Z,9.23
2023-01-19T01:01:22.382Z,7.57
2023-01-19T01:07:50.962Z,5.90
2023-01-19T01:13:53.137Z,8.10
2023-01-19T01:19:55.752Z,5.70
2023-01-19T01:25:58.220Z,7.40
2023-01-19T01:32:03.692Z,5.73
2023-01-19T01:38:07.134Z,10.80
2023-01-19T01:44:50.777Z,9.47
2023-01-19T01:51:20.991Z,8.13
2023-01-19T01:57:23.834Z,7.67
2023-01-19T02:03:28.308Z,8.17
2023-01-19T02:09:55.844Z,13.73
2023-01-19T02:16:02.334Z,12.63
2023-01-19T02:22:20.834Z,8.97
2023-01-19T02:28:23.286Z,14.00
2023-01-19T02:34:25.171Z,9.37
2023-01-19T02:40:29.216Z,11.73
2023-01-19T02:46:35.692Z,11.63
2023-01-19T02:52:38.799Z,10.53
2023-01-19T02:58:55.635Z,11.93
2023-01-19T03:05:07.143Z,11.57
2023-01-19T03:11:12.589Z,9.70
2023-01-19T03:17:20.081Z,11.30
2023-01-19T03:23:28.549Z,10.80
2023-01-19T03:29:38.029Z,10.87
2023-01-19T03:35:48.513Z,12.80
2023-01-19T03:41:55.995Z,16.53
2023-01-19T03:48:00.499Z,11.73
2023-01-19T03:54:02.961Z,14.17
2023-01-19T04:00:06.450Z,18.03
2023-01-19T04:06:12.692Z,12.53
2023-01-19T04:12:15.421Z,13.10
2023-01-19T04:18:17.884Z,14.43
2023-01-19T04:24:20.411Z,14.33
2023-01-19T04:30:23.806Z,16.30
2023-01-19T04:36:26.265Z,16.67
2023-01-19T04:42:28.728Z,11.80
2023-01-19T04:48:31.166Z,12.03
2023-01-19T04:54:33.711Z,17.37
2023-01-19T05:00:37.114Z,11.33
2023-01-19T05:06:39.547Z,16.30
2023-01-19T05:12:43.028Z,18.33
2023-01-19T05:18:45.473Z,31.33
2023-01-19T05:24:47.924Z,32.03
2023-01-19T05:30:53.062Z,24.93
2023-01-19T05:36:55.853Z,19.73
2023-01-19T05:43:01.881Z,23.90
2023-01-19T05:49:05.758Z,19.63
2023-01-19T05:55:08.119Z,22.97
2023-01-19T06:01:11.726Z,26.10
2023-01-19T06:07:14.187Z,16.47
2023-01-19T06:13:16.654Z,23.07
2023-01-19T06:19:19.120Z,19.03
2023-01-19T06:25:24.151Z,28.57
2023-01-19T06:31:27.067Z,67.80
2023-01-19T06:37:31.544Z,57.10
2023-01-19T06:43:33.974Z,45.57
2023-01-19T06:49:36.440Z,36.27
2023-01-19T06:55:40.103Z,36.97
2023-01-19T07:01:42.410Z,46.37
2023-01-19T07:07:45.791Z,29.37
2023-01-19T07:13:51.866Z,34.67
2023-01-19T07:19:54.735Z,25.87
2023-01-19T07:25:59.227Z,21.27
2023-01-19T07:32:04.607Z,22.47
2023-01-19T07:38:07.109Z,19.73
2023-01-19T07:44:12.594Z,28.17
2023-01-19T07:50:17.066Z,16.90
2023-01-19T07:56:23.538Z,22.30
2023-01-19T08:02:27.079Z,19.03
2023-01-19T08:08:30.480Z,22.90
2023-01-19T08:14:34.974Z,38.57
2023-01-19T08:20:37.399Z,38.90
2023-01-19T08:26:39.863Z,42.63
2023-01-19T08:32:42.349Z,33.37
2023-01-19T08:38:48.805Z,36.10
2023-01-19T08:44:58.654Z,30.70
2023-01-19T08:51:01.793Z,33.03
2023-01-19T08:57:06.261Z,29.97
2023-01-19T09:03:11.344Z,25.57
2023-01-19T09:09:17.164Z,32.40
2023-01-19T09:15:19.652Z,34.37
2023-01-19T09:21:25.122Z,26.40
2023-01-19T09:27:27.622Z,24.77
2023-01-19T09:33:30.070Z,32.50
2023-01-19T09:39:32.608Z,36.80
2023-01-19T09:45:53.062Z,35.87
2023-01-19T09:51:57.678Z,41.90
2023-01-19T09:58:00.303Z,47.70
2023-01-19T10:04:31.640Z,30.30
2023-01-19T10:10:35.184Z,36.47
2023-01-19T10:17:06.655Z,40.77
2023-01-19T10:23:26.199Z,37.10
2023-01-19T10:29:41.502Z,48.80
2023-01-19T10:35:46.180Z,40.10
2023-01-19T10:41:56.676Z,44.57
2023-01-19T10:48:06.173Z,44.73
2023-01-19T10:54:14.787Z,39.90
2023-01-19T11:00:42.309Z,57.37
2023-01-19T11:06:47.740Z,44.97
2023-01-19T11:13:04.697Z,40.93
2023-01-19T11:19:18.783Z,42.27
2023-01-19T11:25:29.280Z,31.93
2023-01-19T11:31:37.829Z,36.40
2023-01-19T11:37:48.900Z,29.97
2023-01-19T11:43:57.776Z,47.90
2023-01-19T11:50:24.326Z,38.63
2023-01-19T11:56:29.813Z,38.07
2023-01-19T12:02:45.304Z,36.33
2023-01-19T12:09:16.045Z,37.93
2023-01-19T12:15:32.389Z,33.17
2023-01-19T12:21:38.885Z,28.07
2023-01-19T12:27:44.383Z,39.60
2023-01-19T12:33:47.843Z,30.87
2023-01-19T12:39:50.268Z,29.70
2023-01-19T12:45:52.754Z,36.17
2023-01-19T12:52:21.299Z,31.40
2023-01-19T12:58:28.715Z,29.97
2023-01-19T13:04:41.118Z,29.60
2023-01-19T13:11:05.303Z,37.93
2023-01-19T13:17:22.260Z,36.90
2023-01-19T13:23:51.970Z,51.73
2023-01-19T13:29:56.348Z,43.47
2023-01-19T13:36:01.056Z,33.23
2023-01-19T13:42:14.455Z,40.03
2023-01-19T13:48:20.910Z,28.70
2023-01-19T13:54:26.449Z,39.27
2023-01-19T14:00:31.901Z,31.57
2023-01-19T14:06:38.409Z,45.77
2023-01-19T14:12:54.453Z,39.33
2023-01-19T14:19:03.384Z,33.27
2023-01-19T14:25:51.021Z,48.13
2023-01-19T14:32:03.529Z,38.13
2023-01-19T14:38:08.970Z,40.37
2023-01-19T14:44:17.451Z,42.47
2023-01-19T14:50:27.475Z,42.70
2023-01-19T14:56:34.330Z,38.67
2023-01-19T15:02:38.895Z,41.07
2023-01-19T15:08:41.385Z,50.20
2023-01-19T15:14:50.634Z,354.20
2023-01-19T15:20:54.333Z,651.27
2023-01-19T15:27:02.870Z,469.60
2023-01-19T15:33:23.396Z,93.50
2023-01-19T15:39:26.615Z,453.10
2023-01-19T15:45:39.368Z,198.20
2023-01-19T15:51:42.821Z,43.13
2023-01-19T15:57:46.899Z,406.23
2023-01-19T16:03:50.820Z,158.33
2023-01-19T16:09:53.240Z,799.70
2023-01-19T16:16:02.628Z,247.87
2023-01-19T16:22:06.190Z,488.50
2023-01-19T16:28:19.158Z,240.43
2023-01-19T16:34:21.164Z,181.87
2023-01-19T16:40:23.619Z,370.57
2023-01-19T16:46:35.542Z,608.17
2023-01-19T16:52:40.628Z,729.10
2023-01-19T16:58:44.284Z,492.17
2023-01-19T17:04:45.991Z,251.93
2023-01-19T17:10:50.551Z,484.00
2023-01-19T17:16:52.343Z,153.30
2023-01-19T17:22:54.139Z,57.57
2023-01-19T17:29:05.366Z,48.53
2023-01-19T17:35:13.325Z,61.30
2023-01-19T17:41:20.352Z,42.90
2023-01-19T17:47:27.384Z,57.93
2023-01-19T17:53:31.279Z,46.23
2023-01-19T17:59:36.079Z,38.30
2023-01-19T18:05:38.200Z,88.77
2023-01-19T18:11:42.687Z,70.10
2023-01-19T18:17:48.508Z,56.20
2023-01-19T18:23:51.268Z,14.13
2023-01-19T18:29:54.083Z,6.90
2023-01-19T18:35:56.551Z,3.93
2023-01-19T18:41:58.632Z,3.87
2023-01-19T18:48:18.708Z,1.67
2023-01-19T18:54:20.997Z,1.13
2023-01-19T19:00:23.486Z,1.27
2023-01-19T19:06:27.227Z,3.90
2023-01-19T19:12:33.393Z,1.87
2023-01-19T19:18:38.883Z,2.93
2023-01-19T19:24:41.364Z,1.30
2023-01-19T19:30:43.875Z,2.13
2023-01-19T19:36:46.585Z,108.43
2023-01-19T19:42:51.772Z,60.70
2023-01-19T19:48:54.323Z,58.87
2023-01-19T19:55:01.612Z,67.57
2023-01-19T20:01:15.274Z,116.23
2023-01-19T20:07:18.654Z,63.47
2023-01-19T20:13:25.098Z,33.37
2023-01-19T20:19:31.755Z,4.70
2023-01-19T20:25:42.106Z,236.23
2023-01-19T20:31:51.613Z,22.47
2023-01-19T20:37:54.080Z,54.87
2023-01-19T20:43:56.543Z,5.67
2023-01-19T20:50:01.275Z,14.77
2023-01-19T20:56:12.546Z,12.57
2023-01-19T21:02:18.081Z,8.47
2023-01-19T21:08:24.678Z,143.57
2023-01-19T21:14:27.038Z,51.20
2023-01-19T21:20:32.478Z,15.90
2023-01-19T21:26:34.936Z,2.20
2023-01-19T21:32:37.497Z,2.00
2023-01-19T21:38:39.884Z,147.20
2023-01-19T21:44:42.382Z,12.70
2023-01-19T21:50:45.860Z,3.83
2023-01-19T21:56:50.791Z,7.27
2023-01-19T22:03:03.425Z,9.13
2023-01-19T22:09:07.256Z,45.93
2023-01-19T22:15:12.910Z,29.47
2023-01-19T22:21:24.204Z,23.17
2023-01-19T22:27:26.644Z,49.93
2023-01-19T22:33:29.166Z,11.73
2023-01-19T22:39:31.656Z,43.57
2023-01-19T22:45:34.104Z,44.93
2023-01-19T22:51:36.415Z,79.23
2023-01-19T22:57:40.002Z,6.67
2023-01-19T23:03:44.483Z,21.90
2023-01-19T23:09:46.947Z,2.70
2023-01-19T23:15:51.885Z,3.47
2023-01-19T23:21:53.878Z,2.00
2023-01-19T23:27:56.309Z,2.00
2023-01-19T23:34:02.744Z,29.57
2023-01-19T23:40:06.306Z,79.97
2023-01-19T23:46:12.792Z,12.33
2023-01-19T23:52:15.223Z,24.70
2023-01-19T23:58:21.853Z,17.13
